createdAt,value
2023-05-21T00:02:23.154Z,100.00
2023-05-21T00:04:51.549Z,100.00
2023-05-21T00:07:19.083Z,100.00
2023-05-21T00:09:46.463Z,100.00
2023-05-21T00:12:13.873Z,100.00
2023-05-21T00:14:41.204Z,100.00
2023-05-21T00:17:08.593Z,100.00
2023-05-21T00:19:36.028Z,100.00
2023-05-21T00:22:03.792Z,100.00
2023-05-21T00:24:31.451Z,100.00
2023-05-21T00:26:59.394Z,100.00
2023-05-21T00:29:27.807Z,100.00
2023-05-21T00:31:55.942Z,100.00
2023-05-21T00:34:23.459Z,100.00
2023-05-21T00:36:52.593Z,100.00
2023-05-21T00:39:19.943Z,100.00
2023-05-21T00:41:48.772Z,100.00
2023-05-21T00:44:18.384Z,100.00
2023-05-21T00:46:48.927Z,100.00
2023-05-21T00:49:17.060Z,100.00
2023-05-21T00:51:45.303Z,100.00
2023-05-21T00:54:12.952Z,100.00
2023-05-21T00:56:40.518Z,100.00
2023-05-21T00:59:08.298Z,100.00
2023-05-21T01:01:37.066Z,100.00
2023-05-21T01:04:05.210Z,100.00
2023-05-21T01:06:34.827Z,100.00
2023-05-21T01:09:05.500Z,100.00
2023-05-21T01:11:43.762Z,100.00
2023-05-21T01:14:12.791Z,100.00
2023-05-21T01:16:42.860Z,100.00
2023-05-21T01:19:19.174Z,100.00
2023-05-21T01:21:50.933Z,100.00
2023-05-21T01:24:19.428Z,100.00
2023-05-21T01:26:46.950Z,100.00
2023-05-21T01:29:14.871Z,100.00
2023-05-21T01:32:05.843Z,100.00
2023-05-21T01:34:45.240Z,100.00
2023-05-21T01:37:12.589Z,100.00
2023-05-21T01:39:46.943Z,100.00
2023-05-21T01:42:16.867Z,100.00
2023-05-21T01:44:47.070Z,100.00
2023-05-21T01:47:16.134Z,100.00
2023-05-21T01:49:43.719Z,100.00
2023-05-21T01:52:12.961Z,100.00
2023-05-21T01:54:40.467Z,100.00
2023-05-21T01:57:07.882Z,100.00
2023-05-21T01:59:36.494Z,100.00
2023-05-21T02:02:03.957Z,100.00
2023-05-21T02:04:31.666Z,100.00
2023-05-21T02:06:59.091Z,100.00
2023-05-21T02:09:26.604Z,100.00
2023-05-21T02:11:54.290Z,100.00
2023-05-21T02:14:21.772Z,100.00
2023-05-21T02:16:49.176Z,100.00
2023-05-21T02:19:16.582Z,100.00
2023-05-21T02:21:44.147Z,100.00
2023-05-21T02:24:12.327Z,100.00
2023-05-21T02:26:39.709Z,100.00
2023-05-21T02:29:07.069Z,100.00
2023-05-21T02:31:34.485Z,100.00
2023-05-21T02:34:02.150Z,100.00
2023-05-21T02:36:33.242Z,100.00
2023-05-21T02:39:01.763Z,100.00
2023-05-21T02:41:29.295Z,100.00
2023-05-21T02:43:56.623Z,100.00
2023-05-21T02:46:24.187Z,100.00
2023-05-21T02:48:53.163Z,100.00
2023-05-21T02:51:20.605Z,100.00
2023-05-21T02:53:48.464Z,100.00
2023-05-21T02:56:15.890Z,100.00
2023-05-21T02:58:43.320Z,100.00
2023-05-21T03:01:10.870Z,100.00
2023-05-21T03:03:38.827Z,100.00
2023-05-21T03:06:10.058Z,100.00
2023-05-21T03:08:37.762Z,100.00
2023-05-21T03:11:10.366Z,100.00
2023-05-21T03:13:38.025Z,100.00
2023-05-21T03:16:05.807Z,100.00
2023-05-21T03:18:33.209Z,100.00
2023-05-21T03:21:01.134Z,100.00
2023-05-21T03:23:28.795Z,100.00
2023-05-21T03:25:56.231Z,100.00
2023-05-21T03:28:23.575Z,100.00
2023-05-21T03:30:52.074Z,100.00
2023-05-21T03:33:37.939Z,100.00
2023-05-21T03:36:34.800Z,100.00
2023-05-21T03:39:04.588Z,100.00
2023-05-21T03:41:34.283Z,100.00
2023-05-21T03:44:08.689Z,100.00
2023-05-21T03:46:50.554Z,100.00
2023-05-21T03:49:27.025Z,100.00
2023-05-21T03:51:56.958Z,100.00
2023-05-21T03:54:25.763Z,100.00
2023-05-21T03:56:56.653Z,100.00
2023-05-21T03:59:25.163Z,100.00
2023-05-21T04:01:52.864Z,100.00
2023-05-21T04:04:20.330Z,100.00
2023-05-21T04:06:48.509Z,100.00
2023-05-21T04:09:16.646Z,100.00
2023-05-21T04:11:44.058Z,100.00
2023-05-21T04:14:11.572Z,100.00
2023-05-21T04:16:39.054Z,100.00
2023-05-21T04:19:06.917Z,100.00
2023-05-21T04:21:34.352Z,100.00
2023-05-21T04:24:01.871Z,100.00
2023-05-21T04:26:44.633Z,100.00
2023-05-21T04:29:12.050Z,100.00
2023-05-21T04:31:39.523Z,100.00
2023-05-21T04:34:07.070Z,100.00
2023-05-21T04:36:34.613Z,100.00
2023-05-21T04:39:02.527Z,100.00
2023-05-21T04:41:29.996Z,100.00
2023-05-21T04:44:03.436Z,100.00
2023-05-21T04:46:33.067Z,100.00
2023-05-21T04:49:04.872Z,100.00
2023-05-21T04:51:32.350Z,100.00
2023-05-21T04:53:59.719Z,100.00
2023-05-21T04:56:27.339Z,100.00
2023-05-21T04:58:54.873Z,100.00
2023-05-21T05:01:23.735Z,100.00
2023-05-21T05:03:51.588Z,100.00
2023-05-21T05:06:19.104Z,100.00
2023-05-21T05:08:47.181Z,100.00
2023-05-21T05:11:16.031Z,100.00
2023-05-21T05:13:43.609Z,100.00
2023-05-21T05:16:11.341Z,100.00
2023-05-21T05:18:38.870Z,100.00
2023-05-21T05:21:06.402Z,99.94
2023-05-21T05:23:33.881Z,100.00
2023-05-21T05:26:01.292Z,100.00
2023-05-21T05:28:28.821Z,100.00
2023-05-21T05:30:56.252Z,100.00
2023-05-21T05:33:25.681Z,100.00
2023-05-21T05:35:54.060Z,100.00
2023-05-21T05:38:22.180Z,100.00
2023-05-21T05:40:49.682Z,100.00
2023-05-21T05:43:17.140Z,100.00
2023-05-21T05:45:44.850Z,100.00
2023-05-21T05:48:14.787Z,100.00
2023-05-21T05:50:42.452Z,100.00
2023-05-21T05:53:09.985Z,100.00
2023-05-21T05:55:37.598Z,100.00
2023-05-21T05:58:05.827Z,100.00
2023-05-21T06:00:39.850Z,100.00
2023-05-21T06:03:07.552Z,100.00
2023-05-21T06:05:35.444Z,100.00
2023-05-21T06:08:03.199Z,100.00
2023-05-21T06:10:30.869Z,100.00
2023-05-21T06:12:58.326Z,100.00
2023-05-21T06:15:25.872Z,100.00
2023-05-21T06:17:53.370Z,100.00
2023-05-21T06:20:21.236Z,100.00
2023-05-21T06:22:48.751Z,100.00
2023-05-21T06:25:16.716Z,100.00
2023-05-21T06:27:47.410Z,100.00
2023-05-21T06:30:37.094Z,100.00
2023-05-21T06:33:05.057Z,100.00
2023-05-21T06:35:34.936Z,100.00
2023-05-21T06:38:03.161Z,100.00
2023-05-21T06:40:30.941Z,100.00
2023-05-21T06:43:00.012Z,100.00
2023-05-21T06:45:39.910Z,100.00
2023-05-21T06:48:28.826Z,100.00
2023-05-21T06:50:56.495Z,100.00
2023-05-21T06:53:23.938Z,100.00
2023-05-21T06:55:53.949Z,100.00
2023-05-21T06:58:36.970Z,100.00
2023-05-21T07:01:05.175Z,100.00
2023-05-21T07:03:32.715Z,100.00
2023-05-21T07:06:00.379Z,100.00
2023-05-21T07:08:27.954Z,100.00
2023-05-21T07:10:56.441Z,99.14
2023-05-21T07:13:24.128Z,97.81
2023-05-21T07:15:51.691Z,95.83
2023-05-21T07:18:19.262Z,94.94
2023-05-21T07:20:46.779Z,94.48
2023-05-21T07:23:16.336Z,92.00
2023-05-21T07:25:44.748Z,87.06
2023-05-21T07:28:13.946Z,87.35
2023-05-21T07:30:41.627Z,86.46
2023-05-21T07:33:14.625Z,84.60
2023-05-21T07:35:42.667Z,81.24
2023-05-21T07:38:10.199Z,80.88
2023-05-21T07:40:37.829Z,78.50
2023-05-21T07:43:05.523Z,74.83
2023-05-21T07:45:34.748Z,76.52
2023-05-21T07:48:02.879Z,77.71
2023-05-21T07:50:32.371Z,74.91
2023-05-21T07:53:00.728Z,74.09
2023-05-21T07:55:28.230Z,74.41
2023-05-21T07:57:56.358Z,75.76
2023-05-21T08:00:28.734Z,76.28
2023-05-21T08:02:58.164Z,75.80
2023-05-21T08:05:26.587Z,76.39
2023-05-21T08:07:54.084Z,76.13
2023-05-21T08:10:22.383Z,74.34
2023-05-21T08:12:51.738Z,74.26
2023-05-21T08:15:20.572Z,72.59
2023-05-21T08:17:48.059Z,72.24
2023-05-21T08:20:16.476Z,72.92
2023-05-21T08:22:46.117Z,72.69
2023-05-21T08:25:14.036Z,69.60
2023-05-21T08:27:42.832Z,70.33
2023-05-21T08:30:11.729Z,69.33
2023-05-21T08:32:39.462Z,69.46
2023-05-21T08:35:08.441Z,69.57
2023-05-21T08:37:58.839Z,70.82
2023-05-21T08:40:41.591Z,72.74
2023-05-21T08:43:13.869Z,66.53
2023-05-21T08:45:57.452Z,54.40
2023-05-21T08:48:27.902Z,49.68
2023-05-21T08:50:55.661Z,48.95
2023-05-21T08:53:29.003Z,48.82
2023-05-21T08:55:57.826Z,46.09
2023-05-21T08:58:34.075Z,44.34
2023-05-21T09:01:04.657Z,43.87
2023-05-21T09:03:33.147Z,46.03
2023-05-21T09:06:01.060Z,43.43
2023-05-21T09:08:36.103Z,43.50
2023-05-21T09:11:11.909Z,44.66
2023-05-21T09:13:49.962Z,43.64
2023-05-21T09:16:24.636Z,41.56
2023-05-21T09:18:52.436Z,42.94
2023-05-21T09:21:26.173Z,43.22
2023-05-21T09:23:57.795Z,42.38
2023-05-21T09:26:26.800Z,42.25
2023-05-21T09:29:00.412Z,39.89
2023-05-21T09:31:30.079Z,41.47
2023-05-21T09:33:58.562Z,41.09
2023-05-21T09:36:27.109Z,40.98
2023-05-21T09:38:54.528Z,40.32
2023-05-21T09:41:32.261Z,40.96
2023-05-21T09:44:01.240Z,41.96
2023-05-21T09:46:37.982Z,40.94
2023-05-21T09:49:05.375Z,41.51
2023-05-21T09:51:33.103Z,41.80
2023-05-21T09:54:01.234Z,41.04
2023-05-21T09:56:30.817Z,40.45
2023-05-21T09:59:01.383Z,39.82
2023-05-21T10:01:31.396Z,39.37
2023-05-21T10:04:00.745Z,40.89
2023-05-21T10:06:31.114Z,39.16
2023-05-21T10:09:04.740Z,40.77
2023-05-21T10:11:34.750Z,38.80
2023-05-21T10:14:07.258Z,40.09
2023-05-21T10:16:36.302Z,39.84
2023-05-21T10:19:05.226Z,41.03
2023-05-21T10:21:33.585Z,40.30
2023-05-21T10:24:02.243Z,41.23
2023-05-21T10:26:30.276Z,40.74
2023-05-21T10:29:00.611Z,40.17
2023-05-21T10:31:28.807Z,40.71
2023-05-21T10:33:56.516Z,40.95
2023-05-21T10:36:31.853Z,40.46
2023-05-21T10:39:00.698Z,41.51
2023-05-21T10:41:34.124Z,42.18
2023-05-21T10:44:26.600Z,42.06
2023-05-21T10:46:56.946Z,40.39
2023-05-21T10:49:54.340Z,41.86
2023-05-21T10:52:38.681Z,41.38
2023-05-21T10:55:17.747Z,41.17
2023-05-21T10:58:22.219Z,40.30
2023-05-21T11:00:50.629Z,39.27
2023-05-21T11:03:18.754Z,37.88
2023-05-21T11:05:54.132Z,37.34
2023-05-21T11:08:31.943Z,37.56
2023-05-21T11:10:59.541Z,36.88
2023-05-21T11:13:28.684Z,37.24
2023-05-21T11:15:59.422Z,37.95
2023-05-21T11:18:36.322Z,39.09
2023-05-21T11:21:10.596Z,37.41
2023-05-21T11:24:19.199Z,38.16
2023-05-21T11:26:50.197Z,36.97
2023-05-21T11:29:18.249Z,35.62
2023-05-21T11:31:47.031Z,36.38
2023-05-21T11:34:28.778Z,36.37
2023-05-21T11:37:23.398Z,35.50
2023-05-21T11:39:51.791Z,35.97
2023-05-21T11:42:35.091Z,37.18
2023-05-21T11:45:04.236Z,36.88
2023-05-21T11:47:33.026Z,36.05
2023-05-21T11:50:02.290Z,36.90
2023-05-21T11:52:31.051Z,35.73
2023-05-21T11:54:59.722Z,36.62
2023-05-21T11:57:31.892Z,37.92
2023-05-21T12:00:02.252Z,37.11
2023-05-21T12:02:45.431Z,38.27
2023-05-21T12:05:13.384Z,37.89
2023-05-21T12:07:40.854Z,37.53
2023-05-21T12:10:08.847Z,37.60
2023-05-21T12:12:46.079Z,38.48
2023-05-21T12:15:17.943Z,37.99
2023-05-21T12:17:49.474Z,38.49
2023-05-21T12:20:17.233Z,38.13
2023-05-21T12:22:44.920Z,38.83
2023-05-21T12:25:12.353Z,36.79
2023-05-21T12:27:42.134Z,37.12
2023-05-21T12:30:09.859Z,37.93
2023-05-21T12:32:43.785Z,38.19
2023-05-21T12:35:21.606Z,36.88
2023-05-21T12:37:50.796Z,37.06
2023-05-21T12:40:19.742Z,36.10
2023-05-21T12:42:47.330Z,36.82
2023-05-21T12:45:14.836Z,37.75
2023-05-21T12:47:49.040Z,37.15
2023-05-21T12:50:21.201Z,37.61
2023-05-21T12:52:48.662Z,36.95
2023-05-21T12:55:17.287Z,36.07
2023-05-21T12:57:44.650Z,36.12
2023-05-21T13:00:12.674Z,36.43
2023-05-21T13:02:42.139Z,37.51
2023-05-21T13:05:19.625Z,38.43
2023-05-21T13:07:47.843Z,37.37
2023-05-21T13:10:18.844Z,37.26
2023-05-21T13:12:46.749Z,37.61
2023-05-21T13:15:15.102Z,38.91
2023-05-21T13:17:42.615Z,37.56
2023-05-21T13:20:17.663Z,37.39
2023-05-21T13:22:51.869Z,38.01
2023-05-21T13:25:25.166Z,38.64
2023-05-21T13:27:53.215Z,38.86
2023-05-21T13:30:21.942Z,38.01
2023-05-21T13:32:49.601Z,38.31
2023-05-21T13:35:17.620Z,37.54
2023-05-21T13:37:45.532Z,38.56
2023-05-21T13:40:15.165Z,37.83
2023-05-21T13:42:45.123Z,37.32
2023-05-21T13:45:15.536Z,38.01
2023-05-21T13:47:44.451Z,37.20
2023-05-21T13:50:12.217Z,38.38
2023-05-21T13:52:39.977Z,38.41
2023-05-21T13:55:08.014Z,37.85
2023-05-21T13:57:35.406Z,38.76
2023-05-21T14:00:03.621Z,38.31
2023-05-21T14:02:35.351Z,36.25
2023-05-21T14:05:02.811Z,36.72
2023-05-21T14:07:30.228Z,37.46
2023-05-21T14:09:58.194Z,36.86
2023-05-21T14:12:26.717Z,36.80
2023-05-21T14:14:54.148Z,37.76
2023-05-21T14:17:21.527Z,38.44
2023-05-21T14:19:48.978Z,38.92
2023-05-21T14:22:16.395Z,39.43
2023-05-21T14:24:43.842Z,38.93
2023-05-21T14:27:13.121Z,39.64
2023-05-21T14:29:42.294Z,36.36
2023-05-21T14:32:10.261Z,35.17
2023-05-21T14:34:39.169Z,35.18
2023-05-21T14:37:06.525Z,35.52
2023-05-21T14:39:33.946Z,36.35
2023-05-21T14:42:03.543Z,36.31
2023-05-21T14:44:31.108Z,36.41
2023-05-21T14:46:58.433Z,36.46
2023-05-21T14:49:25.770Z,36.73
2023-05-21T14:51:53.177Z,36.74
2023-05-21T14:54:20.549Z,34.69
2023-05-21T14:56:47.901Z,34.69
2023-05-21T14:59:15.437Z,34.13
2023-05-21T15:01:43.251Z,34.96
2023-05-21T15:04:10.820Z,35.38
2023-05-21T15:06:38.426Z,35.15
2023-05-21T15:09:05.842Z,35.68
2023-05-21T15:11:34.143Z,36.21
2023-05-21T15:14:02.273Z,34.84
2023-05-21T15:16:29.693Z,35.16
2023-05-21T15:18:57.125Z,35.55
2023-05-21T15:21:27.228Z,35.81
2023-05-21T15:23:55.501Z,36.14
2023-05-21T15:26:25.383Z,36.43
2023-05-21T15:28:52.884Z,36.48
2023-05-21T15:31:24.485Z,37.33
2023-05-21T15:33:52.199Z,39.04
2023-05-21T15:36:19.514Z,37.67
2023-05-21T15:38:50.267Z,37.60
2023-05-21T15:41:18.105Z,36.74
2023-05-21T15:43:46.360Z,36.90
2023-05-21T15:46:13.904Z,37.43
2023-05-21T15:48:41.255Z,37.99
2023-05-21T15:51:08.857Z,37.30
2023-05-21T15:53:36.197Z,37.10
2023-05-21T15:56:03.835Z,37.38
2023-05-21T15:58:32.141Z,37.40
2023-05-21T16:00:59.675Z,36.16
2023-05-21T16:03:27.260Z,36.48
2023-05-21T16:05:57.079Z,36.19
2023-05-21T16:08:27.606Z,37.44
2023-05-21T16:10:54.987Z,37.62
2023-05-21T16:13:26.159Z,38.15
2023-05-21T16:15:53.645Z,38.49
2023-05-21T16:18:21.936Z,38.05
2023-05-21T16:20:49.322Z,38.18
2023-05-21T16:23:17.451Z,38.00
2023-05-21T16:25:48.604Z,38.04
2023-05-21T16:28:16.167Z,38.50
2023-05-21T16:30:43.724Z,39.15
2023-05-21T16:33:12.361Z,39.54
2023-05-21T16:35:39.726Z,40.13
2023-05-21T16:38:07.001Z,41.38
2023-05-21T16:40:34.464Z,41.51
2023-05-21T16:43:02.371Z,42.71
2023-05-21T16:45:55.201Z,42.48
2023-05-21T16:48:22.581Z,40.53
2023-05-21T16:50:50.085Z,41.26
2023-05-21T16:53:17.416Z,41.48
2023-05-21T16:55:44.878Z,42.17
2023-05-21T16:58:13.607Z,43.79
2023-05-21T17:00:40.925Z,41.72
2023-05-21T17:03:08.579Z,41.64
2023-05-21T17:05:36.168Z,41.62
2023-05-21T17:08:03.948Z,41.42
2023-05-21T17:10:34.123Z,42.28
2023-05-21T17:13:09.760Z,42.78
2023-05-21T17:15:45.647Z,42.50
2023-05-21T17:18:13.095Z,42.58
2023-05-21T17:20:40.475Z,42.66
2023-05-21T17:23:07.862Z,43.20
2023-05-21T17:25:35.741Z,42.99
2023-05-21T17:28:03.324Z,43.87
2023-05-21T17:30:30.742Z,43.85
2023-05-21T17:32:58.446Z,44.62
2023-05-21T17:35:26.001Z,43.68
2023-05-21T17:37:53.695Z,44.38
2023-05-21T17:40:23.750Z,43.71
2023-05-21T17:42:52.109Z,43.41
2023-05-21T17:45:19.693Z,44.16
2023-05-21T17:47:47.272Z,44.47
2023-05-21T17:50:15.530Z,44.32
2023-05-21T17:52:42.932Z,43.85
2023-05-21T17:55:10.650Z,43.59
2023-05-21T17:57:38.073Z,43.34
2023-05-21T18:00:06.985Z,42.56
2023-05-21T18:02:40.201Z,42.80
2023-05-21T18:05:07.932Z,43.33
2023-05-21T18:07:37.097Z,43.07
2023-05-21T18:10:04.795Z,43.03
2023-05-21T18:12:32.150Z,43.12
2023-05-21T18:14:59.546Z,42.99
2023-05-21T18:17:26.922Z,43.25
2023-05-21T18:19:54.291Z,43.57
2023-05-21T18:22:21.652Z,43.66
2023-05-21T18:24:49.026Z,43.99
2023-05-21T18:27:16.390Z,43.81
2023-05-21T18:29:43.732Z,44.41
2023-05-21T18:32:15.371Z,44.49
2023-05-21T18:34:47.814Z,44.69
2023-05-21T18:37:18.728Z,44.92
2023-05-21T18:39:51.222Z,45.61
2023-05-21T18:42:21.598Z,45.93
2023-05-21T18:44:51.377Z,46.90
2023-05-21T18:47:19.016Z,47.03
2023-05-21T18:49:46.349Z,47.43
2023-05-21T18:52:14.008Z,48.01
2023-05-21T18:54:41.415Z,48.26
2023-05-21T18:57:08.770Z,48.80
2023-05-21T18:59:36.481Z,48.92
2023-05-21T19:02:04.869Z,49.27
2023-05-21T19:04:32.324Z,49.86
2023-05-21T19:06:59.757Z,50.07
2023-05-21T19:09:27.097Z,50.77
2023-05-21T19:11:57.270Z,50.92
2023-05-21T19:14:24.659Z,50.86
2023-05-21T19:16:52.086Z,50.86
2023-05-21T19:19:19.458Z,51.23
2023-05-21T19:21:55.127Z,51.76
2023-05-21T19:24:28.948Z,51.92
2023-05-21T19:26:56.305Z,52.94
2023-05-21T19:29:24.179Z,53.04
2023-05-21T19:31:54.961Z,53.69
2023-05-21T19:34:23.373Z,54.08
2023-05-21T19:36:53.671Z,54.72
2023-05-21T19:39:22.122Z,54.80
2023-05-21T19:41:53.543Z,54.88
2023-05-21T19:44:21.037Z,55.90
2023-05-21T19:46:50.126Z,56.93
2023-05-21T19:49:19.881Z,57.08
2023-05-21T19:51:49.302Z,57.19
2023-05-21T19:54:18.002Z,57.10
2023-05-21T19:56:45.387Z,57.78
2023-05-21T19:59:16.318Z,58.15
2023-05-21T20:01:44.636Z,58.99
2023-05-21T20:04:12.367Z,58.88
2023-05-21T20:06:43.033Z,59.46
2023-05-21T20:09:13.278Z,59.30
2023-05-21T20:11:42.326Z,59.65
2023-05-21T20:14:09.793Z,59.04
2023-05-21T20:16:37.912Z,59.49
2023-05-21T20:19:05.867Z,58.71
2023-05-21T20:21:33.645Z,59.12
2023-05-21T20:24:01.289Z,59.18
2023-05-21T20:26:28.726Z,59.63
2023-05-21T20:28:56.192Z,59.19
2023-05-21T20:31:25.376Z,59.23
2023-05-21T20:33:53.837Z,58.38
2023-05-21T20:36:21.451Z,58.89
2023-05-21T20:38:48.905Z,58.84
2023-05-21T20:41:16.828Z,59.34
2023-05-21T20:43:45.357Z,59.87
2023-05-21T20:46:13.091Z,60.38
2023-05-21T20:48:41.856Z,60.32
2023-05-21T20:51:09.315Z,60.50
2023-05-21T20:53:37.198Z,60.65
2023-05-21T20:56:08.186Z,60.75
2023-05-21T20:58:40.110Z,60.43
2023-05-21T21:01:07.797Z,60.54
2023-05-21T21:03:35.323Z,60.68
2023-05-21T21:06:04.359Z,60.35
2023-05-21T21:08:31.889Z,60.23
2023-05-21T21:11:00.077Z,60.76
2023-05-21T21:13:27.507Z,61.29
2023-05-21T21:15:55.123Z,61.08
2023-05-21T21:18:22.670Z,61.43
2023-05-21T21:20:50.391Z,61.87
2023-05-21T21:23:17.967Z,62.53
2023-05-21T21:25:45.447Z,63.87
2023-05-21T21:31:17.611Z,64.16
2023-05-21T21:33:45.101Z,64.28
2023-05-21T21:36:12.993Z,63.79
2023-05-21T21:38:40.408Z,63.32
2023-05-21T21:41:07.870Z,63.38
2023-05-21T21:43:35.656Z,63.06
2023-05-21T21:46:03.044Z,64.08
2023-05-21T21:48:30.554Z,64.75
2023-05-21T21:50:58.468Z,64.51
2023-05-21T21:53:25.929Z,65.23
2023-05-21T21:55:53.502Z,64.81
2023-05-21T21:58:20.851Z,64.87
2023-05-21T22:00:48.210Z,65.69
2023-05-21T22:03:16.614Z,66.02
2023-05-21T22:05:44.212Z,67.24
2023-05-21T22:08:11.734Z,68.04
2023-05-21T22:10:39.533Z,68.31
2023-05-21T22:13:07.534Z,69.19
2023-05-21T22:15:35.209Z,69.06
2023-05-21T22:18:03.206Z,70.25
2023-05-21T22:20:30.785Z,69.75
2023-05-21T22:22:58.560Z,69.43
2023-05-21T22:25:26.280Z,68.96
2023-05-21T22:27:53.705Z,69.01
2023-05-21T22:30:21.311Z,67.67
2023-05-21T22:32:48.774Z,66.95
2023-05-21T22:35:16.240Z,66.95
2023-05-21T22:37:43.631Z,66.77
2023-05-21T22:40:11.210Z,67.17
2023-05-21T22:42:39.032Z,67.45
2023-05-21T22:45:07.453Z,67.95
2023-05-21T22:47:37.305Z,67.79
2023-05-21T22:50:06.720Z,68.56
2023-05-21T22:52:38.275Z,67.30
2023-05-21T22:55:06.339Z,67.65
2023-05-21T22:57:33.662Z,68.04
2023-05-21T23:00:01.065Z,68.04
2023-05-21T23:02:29.256Z,67.74
2023-05-21T23:04:58.169Z,68.00
2023-05-21T23:07:25.846Z,67.87
2023-05-21T23:09:53.207Z,68.43
2023-05-21T23:12:20.961Z,68.11
2023-05-21T23:14:48.411Z,68.04
2023-05-21T23:17:19.747Z,68.42
2023-05-21T23:19:52.425Z,68.29
2023-05-21T23:22:20.059Z,68.04
2023-05-21T23:24:48.318Z,68.80
2023-05-21T23:27:15.818Z,67.28
2023-05-21T23:29:43.200Z,60.64
2023-05-21T23:32:10.763Z,62.41
2023-05-21T23:34:39.869Z,58.26
2023-05-21T23:37:07.321Z,59.56
2023-05-21T23:39:34.726Z,56.21
2023-05-21T23:42:05.929Z,59.79
2023-05-21T23:44:33.357Z,59.89
2023-05-21T23:47:00.674Z,58.92
2023-05-21T23:49:28.751Z,55.22
2023-05-21T23:51:56.393Z,54.88
2023-05-21T23:54:23.741Z,53.74
2023-05-21T23:56:51.871Z,52.64
2023-05-21T23:59:19.504Z,52.55
